Time;durP1;ratioP1;P1;durP2;ratioP2;P2;SDS_P1;SDS_P2;PMS_P1;PMS_P2;Temp;Humidity;BMP_temperature;BMP_pressure;BME280_temperature;BME280_humidity;BME280_pressure;Samples;Min_cycle;Max_cycle;Signal;HPM_P1;HPM_P2
2021/12/27 00:01:31;;;;;;;;;;;;;;;3.26;90.36;99656.94;5025522;27;19907;-67
2021/12/27 00:03:56;;;;;;;;;;;;;;;3.26;90.62;99663.97;5034302;27;20035;-68
2021/12/27 00:06:21;;;;;;;;;;;;;;;3.25;90.44;99654.44;5043488;27;20081;-69
2021/12/27 00:08:47;;;;;;;;;;;;;;;3.21;90.49;99653.81;5033473;27;20048;-69
2021/12/27 00:11:12;;;;;;;;;;;;;;;3.27;90.72;99652.53;5034606;27;19911;-67
2021/12/27 00:13:37;;;;;;;;;;;;;;;3.19;91.03;99647.06;5007865;27;19946;-67
2021/12/27 00:16:03;;;;;;;;;;;;;;;3.22;91.44;99642.44;5025953;27;19952;-67
2021/12/27 00:18:28;;;;;;;;;;;;;;;3.23;91.51;99644.09;5022174;27;20036;-67
2021/12/27 00:20:53;;;;;;;;;;;;;;;3.21;91.34;99638.13;4992038;27;19907;-67
2021/12/27 00:23:18;;;;;;;;;;;;;;;3.29;91.42;99639.38;5030502;27;19907;-67
2021/12/27 00:25:44;;;;;;;;;;;;;;;3.29;91.44;99640.19;5022090;27;19911;-69
2021/12/27 00:28:09;;;;;;;;;;;;;;;3.32;90.81;99636.50;4995198;27;19916;-67
2021/12/27 00:30:34;;;;;;;;;;;;;;;3.34;91.01;99635.44;5031365;27;19944;-67
2021/12/27 00:32:59;;;;;;;;;;;;;;;3.31;91.34;99640.06;5013478;27;20016;-67
2021/12/27 00:35:26;;;;;;;;;;;;;;;3.19;91.70;99620.94;5033835;27;20168;-67
2021/12/27 00:37:52;;;;;;;;;;;;;;;3.13;92.16;99630.06;5027276;27;19914;-67
2021/12/27 00:40:17;;;;;;;;;;;;;;;3.17;92.41;99620.19;5000495;28;19943;-68
2021/12/27 00:42:42;;;;;;;;;;;;;;;3.16;92.64;99624.59;4992198;28;20395;-67
2021/12/27 00:45:08;;;;;;;;;;;;;;;3.29;92.36;99628.91;5010376;28;19964;-69
2021/12/27 00:47:33;;;;;;;;;;;;;;;3.25;92.76;99623.06;5010558;28;19904;-69
2021/12/27 00:49:58;;;;;;;;;;;;;;;3.26;92.90;99630.78;4999566;27;20933;-67
2021/12/27 00:52:24;;;;;;;;;;;;;;;3.27;92.84;99631.63;5033628;27;20692;-68
2021/12/27 00:54:49;;;;;;;;;;;;;;;3.22;93.03;99629.34;4992646;27;20711;-67
2021/12/27 00:57:14;;;;;;;;;;;;;;;3.40;92.61;99621.06;5027783;27;19941;-68
2021/12/27 00:59:39;;;;;;;;;;;;;;;3.38;92.24;99621.16;5030972;27;20004;-67
2021/12/27 01:02:04;;;;;;;;;;;;;;;3.35;92.60;99616.16;5034720;27;19975;-67
2021/12/27 01:04:30;;;;;;;;;;;;;;;3.29;93.02;99614.03;5031437;27;19964;-68
2021/12/27 01:06:55;;;;;;;;;;;;;;;3.34;93.13;99627.59;5030000;27;20028;-68
2021/12/27 01:09:34;;;;;;;;;;;;;;;3.39;93.03;99622.00;5029632;27;20406;-68
2021/12/27 01:14:44;;;;;;;;;;;;;;;3.42;92.69;99622.59;5030105;27;19909;-70
2021/12/27 01:17:09;;;;;;;;;;;;;;;3.39;92.40;99617.59;5032437;27;20702;-69
2021/12/27 01:19:35;;;;;;;;;;;;;;;3.34;92.62;99617.13;5028486;27;19907;-69
2021/12/27 01:22:00;;;;;;;;;;;;;;;3.34;92.87;99619.75;5027763;27;20246;-67
2021/12/27 01:24:25;;;;;;;;;;;;;;;3.33;92.90;99612.84;5032683;27;20626;-69
2021/12/27 01:26:50;;;;;;;;;;;;;;;3.32;92.73;99611.19;5029446;27;20824;-69
2021/12/27 01:29:15;;;;;;;;;;;;;;;3.27;92.37;99615.94;5031558;27;20592;-69
2021/12/27 01:31:41;;;;;;;;;;;;;;;3.36;92.31;99609.19;5028571;27;20383;-69
2021/12/27 01:34:06;;;;;;;;;;;;;;;3.34;92.27;99614.53;5029702;27;20965;-69
2021/12/27 01:36:32;;;;;;;;;;;;;;;3.35;92.72;99613.56;5031909;27;20842;-69
2021/12/27 01:38:58;;;;;;;;;;;;;;;3.33;92.17;99605.00;5030009;27;19907;-68
2021/12/27 01:41:23;;;;;;;;;;;;;;;3.40;92.73;99605.38;5029967;27;20817;-67
2021/12/27 01:43:48;;;;;;;;;;;;;;;3.39;92.75;99614.16;5029522;27;19938;-67
2021/12/27 01:46:15;;;;;;;;;;;;;;;3.32;92.80;99603.34;5031368;27;19904;-67
2021/12/27 01:48:41;;;;;;;;;;;;;;;3.39;92.64;99606.31;5028073;28;19900;-67
2021/12/27 01:51:10;;;;;;;;;;;;;;;3.39;92.83;99601.09;5028529;27;20250;-67
2021/12/27 01:53:36;;;;;;;;;;;;;;;3.38;92.97;99602.84;5031325;28;19926;-68
2021/12/27 01:56:02;;;;;;;;;;;;;;;3.42;93.07;99599.06;5034036;27;19907;-67
2021/12/27 01:58:27;;;;;;;;;;;;;;;3.39;93.26;99591.44;5028188;27;19908;-67
2021/12/27 02:00:53;;;;;;;;;;;;;;;3.42;92.95;99588.59;5029750;27;20581;-67
2021/12/27 02:03:19;;;;;;;;;;;;;;;3.38;92.80;99600.25;5011771;28;19933;-68
2021/12/27 02:05:44;;;;;;;;;;;;;;;3.42;93.27;99595.63;5028993;27;20019;-68
2021/12/27 02:08:10;;;;;;;;;;;;;;;3.43;93.15;99595.50;5030620;27;20266;-67
2021/12/27 02:10:35;;;;;;;;;;;;;;;3.41;93.34;99597.41;5029985;27;19912;-69
2021/12/27 02:13:00;;;;;;;;;;;;;;;3.49;93.18;99598.59;5034607;27;20353;-67
2021/12/27 02:15:25;;;;;;;;;;;;;;;3.57;92.85;99602.28;5034205;27;20419;-68
2021/12/27 02:17:51;;;;;;;;;;;;;;;3.54;92.54;99601.66;5031664;27;19900;-68
2021/12/27 02:20:19;;;;;;;;;;;;;;;3.54;92.62;99599.03;5031000;27;19963;-69
2021/12/27 02:22:45;;;;;;;;;;;;;;;3.45;92.88;99587.53;5032390;27;19911;-67
2021/12/27 02:25:10;;;;;;;;;;;;;;;3.47;93.03;99600.47;5033978;27;20007;-69
2021/12/27 02:27:35;;;;;;;;;;;;;;;3.55;93.17;99608.56;5030833;27;19908;-68
2021/12/27 02:30:01;;;;;;;;;;;;;;;3.54;93.43;99596.44;5031867;27;19918;-70
2021/12/27 02:32:26;;;;;;;;;;;;;;;3.55;93.01;99598.09;5027396;27;19912;-69
2021/12/27 02:34:51;;;;;;;;;;;;;;;3.57;93.33;99591.81;5031814;27;20007;-68
2021/12/27 02:37:16;;;;;;;;;;;;;;;3.60;93.19;99594.19;5034318;27;20082;-68
2021/12/27 02:39:43;;;;;;;;;;;;;;;3.55;93.13;99585.03;5035848;27;20459;-68
2021/12/27 02:42:08;;;;;;;;;;;;;;;3.57;93.76;99588.38;5032288;27;19903;-68
2021/12/27 02:44:34;;;;;;;;;;;;;;;3.53;93.50;99582.53;5031726;27;19955;-69
2021/12/27 02:46:59;;;;;;;;;;;;;;;3.48;93.52;99581.22;5032026;27;19919;-68
2021/12/27 02:49:24;;;;;;;;;;;;;;;3.48;93.68;99586.47;5032962;27;19952;-67
2021/12/27 02:51:50;;;;;;;;;;;;;;;3.49;94.07;99585.50;5032550;27;20406;-67
2021/12/27 02:54:15;;;;;;;;;;;;;;;3.48;94.35;99578.63;5033679;27;20402;-67
2021/12/27 02:56:41;;;;;;;;;;;;;;;3.53;94.38;99589.56;5028637;27;20829;-71
2021/12/27 02:59:06;;;;;;;;;;;;;;;3.52;94.77;99577.41;5035473;27;20090;-68
2021/12/27 03:01:31;;;;;;;;;;;;;;;3.58;94.42;99587.41;5034146;27;19914;-68
2021/12/27 03:03:56;;;;;;;;;;;;;;;3.61;94.28;99567.06;5033232;27;19930;-68
2021/12/27 03:06:22;;;;;;;;;;;;;;;3.57;94.31;99572.69;5030639;27;20017;-69
2021/12/27 03:08:47;;;;;;;;;;;;;;;3.56;94.08;99569.22;5032791;27;19911;-68
2021/12/27 03:11:12;;;;;;;;;;;;;;;3.54;94.28;99573.75;5032699;27;19907;-69
2021/12/27 03:13:39;;;;;;;;;;;;;;;3.58;94.32;99567.31;5033348;27;20383;-69
2021/12/27 03:16:09;;;;;;;;;;;;;;;3.60;94.48;99567.19;5029394;27;19907;-69
2021/12/27 03:18:34;;;;;;;;;;;;;;;3.49;94.10;99557.56;5029223;27;20037;-69
2021/12/27 03:21:00;;;;;;;;;;;;;;;3.52;94.15;99561.72;5030732;27;20582;-70
2021/12/27 03:23:25;;;;;;;;;;;;;;;3.55;94.11;99556.25;5014559;27;19904;-68
2021/12/27 03:25:51;;;;;;;;;;;;;;;3.55;94.31;99548.41;5033554;27;19941;-68
2021/12/27 03:28:16;;;;;;;;;;;;;;;3.55;94.08;99551.03;5032125;27;20126;-68
2021/12/27 03:30:41;;;;;;;;;;;;;;;3.54;94.08;99536.28;5031944;27;20280;-69
2021/12/27 03:33:07;;;;;;;;;;;;;;;3.51;94.55;99537.38;5031692;27;20102;-69
2021/12/27 03:35:36;;;;;;;;;;;;;;;3.53;94.36;99539.88;5012258;27;20286;-68
2021/12/27 03:38:02;;;;;;;;;;;;;;;3.56;94.64;99537.00;5030391;27;19944;-69
2021/12/27 03:40:28;;;;;;;;;;;;;;;3.58;94.44;99543.78;5013557;27;20355;-69
2021/12/27 03:42:53;;;;;;;;;;;;;;;3.61;94.69;99542.72;5032926;27;20385;-67
2021/12/27 03:45:20;;;;;;;;;;;;;;;3.67;94.42;99544.81;5029644;27;19935;-68
2021/12/27 03:47:45;;;;;;;;;;;;;;;3.68;93.90;99554.34;5032029;27;19903;-69
2021/12/27 03:50:10;;;;;;;;;;;;;;;3.64;93.94;99542.47;5030196;27;20297;-69
2021/12/27 03:52:37;;;;;;;;;;;;;;;3.67;94.47;99544.00;5012903;27;20225;-69
2021/12/27 03:55:02;;;;;;;;;;;;;;;3.67;94.52;99544.00;5031999;27;19906;-67
2021/12/27 03:57:28;;;;;;;;;;;;;;;3.67;94.45;99539.59;5029396;27;19904;-67
2021/12/27 04:00:15;;;;;;;;;;;;;;;3.70;94.11;99534.09;5032390;27;20795;-67
2021/12/27 04:02:38;;;;;;;;;;;;;;;3.73;93.96;99544.31;5032585;27;19903;-67
2021/12/27 04:05:04;;;;;;;;;;;;;;;3.74;93.92;99532.91;5033086;27;20658;-67
2021/12/27 04:07:33;;;;;;;;;;;;;;;3.67;93.97;99536.97;5012682;27;20325;-67
2021/12/27 04:09:59;;;;;;;;;;;;;;;3.69;94.38;99545.53;5031205;27;19911;-70
2021/12/27 04:12:24;;;;;;;;;;;;;;;3.74;93.96;99543.38;5031217;27;19917;-69
2021/12/27 04:14:49;;;;;;;;;;;;;;;3.77;94.07;99530.03;5036346;27;19904;-70
2021/12/27 04:17:14;;;;;;;;;;;;;;;3.76;93.36;99533.59;5032280;27;19910;-69
2021/12/27 04:19:40;;;;;;;;;;;;;;;3.72;93.58;99526.97;5013996;27;19903;-69
2021/12/27 04:22:05;;;;;;;;;;;;;;;3.73;93.59;99533.84;5014469;27;19919;-68
2021/12/27 04:24:30;;;;;;;;;;;;;;;3.74;93.97;99522.44;5031175;27;19987;-67
2021/12/27 04:26:55;;;;;;;;;;;;;;;3.71;93.75;99520.09;5015507;27;20020;-69
2021/12/27 04:29:20;;;;;;;;;;;;;;;3.69;93.75;99511.50;5031075;27;21004;-70
2021/12/27 04:31:46;;;;;;;;;;;;;;;3.70;93.93;99505.34;5030101;27;20343;-70
2021/12/27 04:34:11;;;;;;;;;;;;;;;3.68;93.64;99509.88;5031899;27;20372;-69
2021/12/27 04:36:36;;;;;;;;;;;;;;;3.69;94.03;99506.28;5029895;27;19982;-68
2021/12/27 04:39:02;;;;;;;;;;;;;;;3.74;93.96;99505.94;5030862;27;19948;-69
2021/12/27 04:41:27;;;;;;;;;;;;;;;3.72;93.58;99500.81;5031100;27;19968;-68
2021/12/27 04:43:52;;;;;;;;;;;;;;;3.80;93.48;99505.41;5032415;27;20028;-67
2021/12/27 04:46:17;;;;;;;;;;;;;;;3.82;93.05;99500.06;5021911;27;19908;-69
2021/12/27 04:48:43;;;;;;;;;;;;;;;3.78;93.11;99487.22;5030378;27;20825;-68
2021/12/27 04:51:08;;;;;;;;;;;;;;;3.77;93.53;99500.44;5032215;27;20842;-69
2021/12/27 04:53:33;;;;;;;;;;;;;;;3.75;93.52;99495.34;5013789;27;20867;-68
2021/12/27 04:55:58;;;;;;;;;;;;;;;3.77;93.64;99500.44;5009161;27;20733;-69
2021/12/27 04:58:24;;;;;;;;;;;;;;;3.77;93.75;99493.41;5012742;27;19952;-69
2021/12/27 05:00:49;;;;;;;;;;;;;;;3.73;93.75;99501.63;5033702;27;19956;-69
2021/12/27 05:03:14;;;;;;;;;;;;;;;3.74;93.69;99491.06;5029897;27;19955;-69
2021/12/27 05:05:43;;;;;;;;;;;;;;;3.73;93.59;99485.94;5032834;27;20395;-68
2021/12/27 05:08:09;;;;;;;;;;;;;;;3.74;93.98;99490.22;5030751;27;20330;-69
2021/12/27 05:10:35;;;;;;;;;;;;;;;3.76;94.00;99481.28;5032126;27;19908;-68
2021/12/27 05:13:00;;;;;;;;;;;;;;;3.82;93.57;99469.50;5034888;27;20888;-69
2021/12/27 05:15:25;;;;;;;;;;;;;;;3.81;93.87;99475.69;5031147;27;19915;-68
2021/12/27 05:17:51;;;;;;;;;;;;;;;3.80;93.85;99486.28;5030044;27;19904;-67
2021/12/27 05:20:16;;;;;;;;;;;;;;;3.78;93.94;99482.00;5012096;27;19960;-68
2021/12/27 05:22:41;;;;;;;;;;;;;;;3.81;94.28;99483.53;5033251;27;19908;-69
2021/12/27 05:25:07;;;;;;;;;;;;;;;3.83;93.75;99480.81;5026525;27;19946;-67
2021/12/27 05:27:32;;;;;;;;;;;;;;;3.90;93.38;99481.97;5030040;27;19907;-69
2021/12/27 05:29:57;;;;;;;;;;;;;;;3.83;93.37;99471.16;5033225;27;20808;-68
2021/12/27 05:32:22;;;;;;;;;;;;;;;3.85;93.62;99473.63;5032687;27;20697;-69
2021/12/27 05:34:48;;;;;;;;;;;;;;;3.86;94.12;99459.59;5031236;27;20805;-71
2021/12/27 05:37:13;;;;;;;;;;;;;;;3.93;93.87;99471.22;5027970;27;19907;-70
2021/12/27 05:39:38;;;;;;;;;;;;;;;3.93;94.39;99476.47;5029780;27;19903;-70
2021/12/27 05:42:04;;;;;;;;;;;;;;;3.92;93.60;99470.41;5031477;27;20054;-69
2021/12/27 05:44:29;;;;;;;;;;;;;;;3.94;93.58;99470.28;5028527;27;20594;-69
2021/12/27 05:46:54;;;;;;;;;;;;;;;3.91;94.06;99468.75;5026691;27;19912;-67
2021/12/27 05:49:20;;;;;;;;;;;;;;;3.95;94.20;99466.72;5030067;28;20151;-69
2021/12/27 05:51:45;;;;;;;;;;;;;;;3.95;93.61;99467.53;5029542;27;20054;-67
2021/12/27 05:54:11;;;;;;;;;;;;;;;3.99;93.98;99462.91;5027788;28;19912;-68
2021/12/27 05:56:36;;;;;;;;;;;;;;;4.06;93.43;99464.03;5009406;28;19952;-69
2021/12/27 05:59:01;;;;;;;;;;;;;;;3.99;93.62;99468.13;5028840;28;19911;-68
2021/12/27 06:01:26;;;;;;;;;;;;;;;4.07;93.57;99467.50;5028615;27;19904;-68
2021/12/27 06:03:55;;;;;;;;;;;;;;;4.03;93.70;99450.38;5029901;28;19923;-68
2021/12/27 06:06:20;;;;;;;;;;;;;;;4.02;93.92;99454.78;5025576;27;19911;-68
2021/12/27 06:08:45;;;;;;;;;;;;;;;4.02;93.51;99454.78;5030429;28;19956;-70
2021/12/27 06:11:10;;;;;;;;;;;;;;;4.12;93.78;99450.44;5028149;27;20009;-67
2021/12/27 06:13:35;;;;;;;;;;;;;;;4.07;93.85;99447.34;5032843;28;20024;-66
2021/12/27 06:16:01;;;;;;;;;;;;;;;4.06;93.43;99450.97;5030220;27;19957;-71
2021/12/27 06:18:26;;;;;;;;;;;;;;;4.07;93.62;99446.53;5011552;28;20291;-69
2021/12/27 06:20:51;;;;;;;;;;;;;;;4.09;94.21;99449.84;5028252;27;19903;-69
2021/12/27 06:23:16;;;;;;;;;;;;;;;4.12;94.37;99449.63;5025912;28;19903;-69
2021/12/27 06:25:43;;;;;;;;;;;;;;;4.10;93.75;99441.03;5011390;28;19928;-68
2021/12/27 06:28:09;;;;;;;;;;;;;;;4.15;93.86;99443.31;5030923;27;20574;-68
2021/12/27 06:30:34;;;;;;;;;;;;;;;4.19;94.16;99449.91;5028424;27;19915;-68
2021/12/27 06:32:59;;;;;;;;;;;;;;;4.18;94.09;99448.28;5029582;28;20752;-69
2021/12/27 06:35:24;;;;;;;;;;;;;;;4.18;94.02;99453.50;5028193;27;20734;-68
2021/12/27 06:37:50;;;;;;;;;;;;;;;4.23;93.51;99454.78;5011225;28;20044;-70
2021/12/27 06:40:15;;;;;;;;;;;;;;;4.24;93.44;99455.63;5028642;27;19907;-70
2021/12/27 06:42:40;;;;;;;;;;;;;;;4.24;93.05;99464.28;5029745;28;20799;-67
2021/12/27 06:45:06;;;;;;;;;;;;;;;4.28;93.83;99462.25;5029804;28;19990;-67
2021/12/27 06:47:31;;;;;;;;;;;;;;;4.34;93.43;99466.97;5028815;28;20352;-70
2021/12/27 06:49:56;;;;;;;;;;;;;;;4.30;93.60;99465.56;5027233;28;20717;-67
2021/12/27 06:52:23;;;;;;;;;;;;;;;4.32;93.30;99460.22;5028124;27;19907;-69
2021/12/27 06:54:48;;;;;;;;;;;;;;;4.35;93.42;99450.31;5034361;27;19907;-69
2021/12/27 06:57:13;;;;;;;;;;;;;;;4.36;92.73;99459.84;5033286;27;19956;-69
2021/12/27 06:59:39;;;;;;;;;;;;;;;4.40;93.16;99471.72;5032834;27;20665;-68
2021/12/27 07:02:04;;;;;;;;;;;;;;;4.36;92.78;99456.38;5031707;27;20953;-68
2021/12/27 07:04:31;;;;;;;;;;;;;;;4.34;92.90;99451.25;5013755;27;20171;-68
2021/12/27 07:06:56;;;;;;;;;;;;;;;4.34;93.17;99464.34;5033711;27;20077;-67
2021/12/27 07:09:21;;;;;;;;;;;;;;;4.33;93.15;99467.94;5031545;27;19911;-67
2021/12/27 07:11:47;;;;;;;;;;;;;;;4.36;92.85;99478.16;5032627;27;20024;-69
2021/12/27 07:14:12;;;;;;;;;;;;;;;4.37;93.22;99469.34;5030774;27;20148;-68
2021/12/27 07:16:37;;;;;;;;;;;;;;;4.35;92.78;99466.03;5031769;27;20162;-68
2021/12/27 07:19:02;;;;;;;;;;;;;;;4.32;92.80;99461.03;5032035;27;19968;-69
2021/12/27 07:21:28;;;;;;;;;;;;;;;4.27;92.71;99463.22;5013597;27;21005;-67
2021/12/27 07:23:53;;;;;;;;;;;;;;;4.28;93.43;99459.63;5029858;27;20446;-70
2021/12/27 07:26:18;;;;;;;;;;;;;;;4.30;93.09;99462.94;5032661;27;19986;-69
2021/12/27 07:28:43;;;;;;;;;;;;;;;4.30;92.55;99455.09;5030345;27;19911;-67
2021/12/27 07:31:09;;;;;;;;;;;;;;;4.33;92.33;99457.47;5033773;27;19907;-67
2021/12/27 07:33:35;;;;;;;;;;;;;;;4.34;92.80;99469.59;5033022;27;20167;-67
2021/12/27 07:36:00;;;;;;;;;;;;;;;4.36;92.77;99461.59;5010727;27;20822;-67
2021/12/27 07:38:25;;;;;;;;;;;;;;;4.36;92.79;99454.59;5028134;27;20254;-67
2021/12/27 07:40:50;;;;;;;;;;;;;;;4.31;92.14;99459.38;5029686;27;19907;-67
2021/12/27 07:43:16;;;;;;;;;;;;;;;4.30;92.44;99455.09;5032440;27;19988;-67
2021/12/27 07:45:41;;;;;;;;;;;;;;;4.29;92.87;99456.88;5031392;27;20107;-68
2021/12/27 07:48:07;;;;;;;;;;;;;;;4.22;92.55;99447.88;5034734;27;20268;-68
2021/12/27 07:50:35;;;;;;;;;;;;;;;4.23;92.33;99446.09;5029314;27;20278;-68
2021/12/27 07:53:00;;;;;;;;;;;;;;;4.22;92.39;99450.50;5029283;27;19970;-67
2021/12/27 07:55:27;;;;;;;;;;;;;;;4.21;91.88;99453.25;5031004;27;20473;-67
2021/12/27 07:57:53;;;;;;;;;;;;;;;4.23;91.80;99448.72;5005182;27;19931;-67
2021/12/27 08:00:18;;;;;;;;;;;;;;;4.28;91.83;99449.97;4993296;27;19904;-68
2021/12/27 08:02:44;;;;;;;;;;;;;;;4.27;91.85;99437.88;5010443;27;19908;-68
2021/12/27 08:05:09;;;;;;;;;;;;;;;4.24;91.87;99432.88;5011986;27;19987;-68
2021/12/27 08:07:34;;;;;;;;;;;;;;;4.17;92.34;99425.66;5032361;27;19907;-68
2021/12/27 08:09:59;;;;;;;;;;;;;;;4.18;92.43;99427.34;5032027;27;20024;-67
2021/12/27 08:12:25;;;;;;;;;;;;;;;4.13;92.50;99428.53;5030632;27;20955;-68
2021/12/27 08:14:50;;;;;;;;;;;;;;;4.09;92.85;99424.53;5031883;27;20455;-67
2021/12/27 08:17:15;;;;;;;;;;;;;;;4.13;92.83;99427.69;5031256;27;19915;-68
2021/12/27 08:19:40;;;;;;;;;;;;;;;4.13;92.65;99436.41;5037052;27;19967;-67
2021/12/27 08:22:06;;;;;;;;;;;;;;;4.17;93.03;99428.28;5032250;27;19918;-67
2021/12/27 08:24:31;;;;;;;;;;;;;;;4.18;93.44;99432.56;5028576;27;19919;-67
2021/12/27 08:26:56;;;;;;;;;;;;;;;4.20;93.10;99428.03;5022940;27;19908;-68
2021/12/27 08:29:21;;;;;;;;;;;;;;;4.24;93.26;99418.94;5027594;27;20929;-68
2021/12/27 08:31:47;;;;;;;;;;;;;;;4.31;93.25;99412.25;5032236;27;19914;-68
2021/12/27 08:34:12;;;;;;;;;;;;;;;4.28;93.04;99422.97;5012156;27;19908;-67
2021/12/27 08:36:37;;;;;;;;;;;;;;;4.36;93.25;99420.53;5030646;27;19922;-68
2021/12/27 08:39:02;;;;;;;;;;;;;;;4.34;92.77;99421.63;5033733;27;19961;-68
2021/12/27 08:41:28;;;;;;;;;;;;;;;4.34;92.67;99411.16;5033532;27;20082;-67
2021/12/27 08:43:56;;;;;;;;;;;;;;;4.35;93.14;99415.44;5031610;27;20427;-67
2021/12/27 08:46:22;;;;;;;;;;;;;;;4.30;92.84;99414.03;5029034;27;19907;-68
2021/12/27 08:48:47;;;;;;;;;;;;;;;4.28;93.27;99413.31;5032893;27;19907;-68
2021/12/27 08:51:12;;;;;;;;;;;;;;;4.37;94.07;99406.50;5030737;27;20211;-68
2021/12/27 08:53:37;;;;;;;;;;;;;;;4.44;93.49;99418.13;5032488;27;20197;-68
2021/12/27 08:56:03;;;;;;;;;;;;;;;4.56;93.67;99410.16;5034037;27;20424;-68
2021/12/27 08:58:28;;;;;;;;;;;;;;;4.60;93.24;99407.16;5013485;27;20038;-69
2021/12/27 09:00:53;;;;;;;;;;;;;;;4.66;93.81;99411.03;5005025;28;19912;-68
2021/12/27 09:03:19;;;;;;;;;;;;;;;4.70;93.57;99412.44;5032965;27;20310;-67
2021/12/27 09:05:44;;;;;;;;;;;;;;;4.70;93.82;99403.75;5027336;27;20028;-67
2021/12/27 09:08:09;;;;;;;;;;;;;;;4.72;93.38;99392.16;5033056;27;19944;-67
2021/12/27 09:10:35;;;;;;;;;;;;;;;4.70;93.66;99409.00;5030462;27;19913;-67
2021/12/27 09:13:00;;;;;;;;;;;;;;;4.77;93.96;99397.84;5032860;27;19968;-68
2021/12/27 09:15:26;;;;;;;;;;;;;;;4.81;93.72;99396.59;5031169;27;20229;-69
2021/12/27 09:17:51;;;;;;;;;;;;;;;4.87;93.72;99408.34;5023193;27;19918;-67
2021/12/27 09:20:16;;;;;;;;;;;;;;;4.86;93.55;99398.81;5023625;27;19960;-68
2021/12/27 09:22:42;;;;;;;;;;;;;;;4.97;93.52;99403.97;5045857;27;19998;-67
2021/12/27 09:25:07;;;;;;;;;;;;;;;5.10;93.54;99398.47;5026225;27;19961;-67
2021/12/27 09:27:32;;;;;;;;;;;;;;;5.18;93.06;99397.00;5019829;27;20016;-66
2021/12/27 09:29:57;;;;;;;;;;;;;;;5.25;92.64;99398.09;5018276;27;21532;-68
2021/12/27 09:32:23;;;;;;;;;;;;;;;5.33;92.73;99398.25;5017959;27;20272;-68
2021/12/27 09:34:48;;;;;;;;;;;;;;;5.40;92.27;99394.13;5025717;27;20008;-68
2021/12/27 09:37:13;;;;;;;;;;;;;;;5.40;92.17;99391.50;5012596;27;19988;-67
2021/12/27 09:39:39;;;;;;;;;;;;;;;5.36;92.22;99405.00;5029841;27;20849;-68
2021/12/27 09:42:04;;;;;;;;;;;;;;;5.44;92.95;99395.50;5025324;27;19918;-67
2021/12/27 09:44:29;;;;;;;;;;;;;;;5.41;92.92;99401.00;5024607;27;20366;-67
2021/12/27 09:46:55;;;;;;;;;;;;;;;5.43;92.65;99398.22;5027194;27;20815;-68
2021/12/27 09:49:20;;;;;;;;;;;;;;;5.44;92.45;99386.78;5032844;27;20028;-69
2021/12/27 09:51:46;;;;;;;;;;;;;;;5.49;92.84;99388.03;5036131;27;19911;-69
2021/12/27 09:54:11;;;;;;;;;;;;;;;5.55;92.48;99386.66;5051446;27;20392;-67
2021/12/27 09:56:36;;;;;;;;;;;;;;;5.61;92.60;99385.25;5056711;27;19940;-68
2021/12/27 09:59:02;;;;;;;;;;;;;;;5.66;92.24;99385.69;5054167;27;20681;-69
2021/12/27 10:01:27;;;;;;;;;;;;;;;5.76;92.56;99394.38;5035252;27;20803;-66
2021/12/27 10:03:53;;;;;;;;;;;;;;;5.88;91.56;99396.84;5038308;27;20010;-67
2021/12/27 10:06:19;;;;;;;;;;;;;;;5.83;92.30;99394.66;5040342;27;20047;-69
2021/12/27 10:08:45;;;;;;;;;;;;;;;5.78;92.42;99387.22;5035204;27;20700;-68
2021/12/27 10:11:20;;;;;;;;;;;;;;;5.82;93.09;99383.34;5030596;27;20272;-70
2021/12/27 10:13:58;;;;;;;;;;;;;;;5.94;92.96;99385.81;5034113;27;20430;-69
2021/12/27 10:16:24;;;;;;;;;;;;;;;6.19;92.62;99374.72;5034998;27;19940;-66
2021/12/27 10:18:59;;;;;;;;;;;;;;;6.36;91.90;99369.72;5046818;27;20016;-66
2021/12/27 10:21:24;;;;;;;;;;;;;;;6.49;91.71;99359.69;5030551;27;20015;-68
2021/12/27 10:23:59;;;;;;;;;;;;;;;6.50;91.73;99355.25;5031054;28;19915;-67
2021/12/27 10:26:25;;;;;;;;;;;;;;;6.50;91.67;99345.59;5033032;27;20564;-67
2021/12/27 10:29:04;;;;;;;;;;;;;;;6.53;90.34;99345.28;5031172;27;20847;-68
2021/12/27 10:31:29;;;;;;;;;;;;;;;6.53;89.96;99354.97;5032405;27;19911;-67
2021/12/27 10:33:55;;;;;;;;;;;;;;;6.56;89.79;99357.31;5033743;27;19908;-68
2021/12/27 10:36:20;;;;;;;;;;;;;;;6.58;90.30;99351.91;5033131;27;19911;-66
2021/12/27 10:38:45;;;;;;;;;;;;;;;6.56;90.50;99351.22;5032459;27;19916;-67
2021/12/27 10:41:10;;;;;;;;;;;;;;;6.50;90.22;99350.84;5032059;27;19938;-68
2021/12/27 10:43:45;;;;;;;;;;;;;;;6.62;90.55;99348.84;5032836;27;20242;-68
2021/12/27 10:46:17;;;;;;;;;;;;;;;6.65;90.09;99345.09;5035436;27;19923;-68
2021/12/27 10:48:57;;;;;;;;;;;;;;;6.65;90.26;99350.34;5033791;27;20337;-68
2021/12/27 10:51:22;;;;;;;;;;;;;;;6.79;89.63;99341.16;5035543;27;20156;-66
2021/12/27 10:53:49;;;;;;;;;;;;;;;7.00;89.12;99346.16;5030799;27;20656;-67
2021/12/27 10:56:14;;;;;;;;;;;;;;;7.07;88.48;99341.94;5034395;27;20205;-67
2021/12/27 10:59:00;;;;;;;;;;;;;;;7.04;89.20;99342.25;5035022;27;19968;-69
2021/12/27 11:01:26;;;;;;;;;;;;;;;7.00;89.34;99333.00;5034443;27;19904;-68
2021/12/27 11:04:10;;;;;;;;;;;;;;;6.86;89.17;99337.78;5038226;27;20852;-67
2021/12/27 11:06:40;;;;;;;;;;;;;;;6.86;89.40;99329.88;5034281;27;19924;-68
2021/12/27 11:09:05;;;;;;;;;;;;;;;6.84;89.08;99329.22;5032129;27;19941;-68
2021/12/27 11:11:30;;;;;;;;;;;;;;;6.93;88.61;99324.06;5027124;27;20024;-69
2021/12/27 11:13:56;;;;;;;;;;;;;;;6.95;88.89;99329.97;5026904;27;20170;-66
2021/12/27 11:16:21;;;;;;;;;;;;;;;7.11;88.04;99321.44;5032202;27;20305;-68
2021/12/27 11:18:47;;;;;;;;;;;;;;;7.18;87.38;99328.56;5025862;27;20392;-68
2021/12/27 11:21:13;;;;;;;;;;;;;;;7.13;87.99;99322.09;5046578;27;19915;-69
2021/12/27 11:23:38;;;;;;;;;;;;;;;7.16;87.06;99325.28;5039617;27;19916;-67
2021/12/27 11:26:05;;;;;;;;;;;;;;;7.13;86.98;99320.28;5040643;27;19916;-68
2021/12/27 11:28:34;;;;;;;;;;;;;;;7.22;86.91;99314.13;5041042;27;19952;-69
2021/12/27 11:31:00;;;;;;;;;;;;;;;7.18;87.50;99309.34;5034551;27;20374;-68
2021/12/27 11:33:26;;;;;;;;;;;;;;;7.16;87.45;99298.97;5021826;27;19912;-68
2021/12/27 11:35:51;;;;;;;;;;;;;;;7.13;87.32;99303.69;5037130;27;19915;-68
2021/12/27 11:38:32;;;;;;;;;;;;;;;7.17;87.87;99295.34;5035910;27;19916;-66
2021/12/27 11:40:58;;;;;;;;;;;;;;;7.27;86.67;99292.63;5041242;27;19911;-69
2021/12/27 11:43:23;;;;;;;;;;;;;;;7.53;86.09;99278.69;5043275;27;19912;-69
2021/12/27 11:45:54;;;;;;;;;;;;;;;7.62;85.83;99290.13;5039945;27;19957;-67
2021/12/27 11:48:20;;;;;;;;;;;;;;;7.57;85.75;99286.13;5039754;27;19912;-67
2021/12/27 11:51:06;;;;;;;;;;;;;;;7.59;85.81;99287.78;5040887;27;20610;-69
2021/12/27 11:53:32;;;;;;;;;;;;;;;7.48;85.85;99283.59;5041666;27;20148;-69
2021/12/27 11:55:57;;;;;;;;;;;;;;;7.36;86.21;99277.72;5042529;27;19900;-68
2021/12/27 11:58:35;;;;;;;;;;;;;;;7.36;85.90;99268.06;5042638;27;19964;-68
2021/12/27 12:01:19;;;;;;;;;;;;;;;7.32;86.39;99266.69;5041739;27;19911;-69
2021/12/27 12:03:44;;;;;;;;;;;;;;;7.35;85.94;99265.56;5040255;27;19918;-68
2021/12/27 12:06:28;;;;;;;;;;;;;;;7.50;85.45;99257.94;5040959;27;19904;-69
2021/12/27 12:08:53;;;;;;;;;;;;;;;7.71;85.80;99249.69;5037551;27;19911;-69
2021/12/27 12:11:28;;;;;;;;;;;;;;;7.83;84.65;99253.72;5041815;27;19908;-69
2021/12/27 12:13:53;;;;;;;;;;;;;;;7.87;84.37;99249.78;5044824;27;19915;-68
2021/12/27 12:16:19;;;;;;;;;;;;;;;8.15;83.68;99251.41;5042970;27;19956;-67
2021/12/27 12:18:44;;;;;;;;;;;;;;;8.57;82.35;99246.16;5042661;27;20235;-68
2021/12/27 12:21:28;;;;;;;;;;;;;;;9.01;80.15;99236.31;5036020;27;20312;-68
2021/12/27 12:23:54;;;;;;;;;;;;;;;8.94;80.10;99229.06;5042147;27;20338;-69
2021/12/27 12:26:19;;;;;;;;;;;;;;;8.81;80.49;99226.06;5041122;27;20851;-67
2021/12/27 12:28:44;;;;;;;;;;;;;;;8.84;80.31;99228.41;5040560;27;20021;-69
2021/12/27 12:31:10;;;;;;;;;;;;;;;8.62;80.51;99229.84;5041186;27;20284;-67
2021/12/27 12:33:35;;;;;;;;;;;;;;;8.48;80.81;99230.47;5041970;27;20829;-67
2021/12/27 12:36:04;;;;;;;;;;;;;;;8.29;82.13;99231.53;5042664;27;20869;-67
2021/12/27 12:38:36;;;;;;;;;;;;;;;8.09;82.35;99226.50;5039610;27;19907;-68
2021/12/27 12:41:01;;;;;;;;;;;;;;;8.00;83.04;99223.03;5040870;27;19959;-67
2021/12/27 12:43:35;;;;;;;;;;;;;;;7.89;83.46;99225.94;5042505;27;20206;-68
2021/12/27 12:46:10;;;;;;;;;;;;;;;7.85;84.23;99220.13;5041139;27;20714;-69
2021/12/27 12:48:35;;;;;;;;;;;;;;;7.82;84.08;99219.63;5037597;27;19953;-68
2021/12/27 12:51:00;;;;;;;;;;;;;;;7.80;84.84;99216.31;5042116;27;20036;-67
2021/12/27 12:53:33;;;;;;;;;;;;;;;7.73;85.05;99211.69;5041146;27;20259;-67
2021/12/27 12:56:00;;;;;;;;;;;;;;;7.69;85.21;99223.50;5039731;27;20130;-68